Great Smoky Mtns National Park, NC

8:08 AM EST on February 27, 2015 (GMT -0500)
Asheville Middle School | Change Station
CLOSE
Current Station
Personal Weather Station
Location: Asheville, NC
Elevation: 2139 ft
Nearby Weather Stations
Active Advisory: Winter Weather Advisory Active Notice: Local Storm Report

Elev 2139 ft 35.59 °N, 82.56 °W | Updated 11 minutes ago

Overcast
Overcast
24.2 °F
Feels Like 19 °F
N
3.7
Wind Variable Wind from West

Today
High -- | Low -- °F
--% Chance of Precip.
Yesterday
High -- | Low -- °F
Precip. -- in
7:02 AM 6:23 PM
Waxing Gibbous, 68% visible
Pressure 30.32 in
Visibility 10.0 miles
Clouds Overcast 2800 ft
Windchill 19 °F
Dew Point 19 °F
Humidity 80%
Rainfall 0.00 in
Snow Depth Not available.
UV 0 out of 12
Pollen 4.80 out of 12
Air Quality Not available.
Flu Activity Not available.
METAR KAVL 271254Z 35009KT 10SM OVC028 M02/M07 A3027 RMK AO2 SLP265 T10221067

More Conditions Fewer Conditions

Pressure 30.32 in
Visibility 10.0 miles
Clouds Overcast 2800 ft
Windchill 19 °F
Dew Point 19 °F
Humidity 80%
Rainfall 0.00 in
Snow Depth Not available.
UV 0 out of 12
Pollen 4.80 out of 12
Air Quality Not available.
Flu Activity Not available.
METAR KAVL 271254Z 35009KT 10SM OVC028 M02/M07 A3027 RMK AO2 SLP265 T10221067

More Conditions Fewer Conditions

10-Day Weather Forecast

Almanac

Astronomy

Feb. 27, 2015 Rise Set
Actual Time
Civil Twilight
Nautical Twilight
Astronomical Twilight
Moon
Length of Visible Light
Length of Day
Tomorrow will be .
, % of the Moon is Illuminated

Today's Extremes

State Highs State Lows

Community

WunderPhotos

Upload Photos

1,800,666 photos uploaded!

WunderBlogs® & News

Nearby

Air Quality

  Air Quality AQ Index Pollutant
Not available.

Snow Depth

Station Depth Elevation

Earthquake Activity

City Distance Mag. Time & Date
Minimum magnitude displayed is 2.5.

Coastal Water Temperatures

Place Temperature

Nearby Weather Stations

Winter Weather Advisory
Statement as of 2:37 AM EST on February 27, 2015

... Winter Weather Advisory remains in effect until noon EST
today...

* locations... the mountains of western North Carolina.

* Hazards... widespread black ice on roadways and other hard
surfaces. Patchy freezing fog depositing light accumulations of
ice.

* Timing... through noon today.

* Impacts... hazardous travel conditions.

* Temperatures... falling into the upper teens and lower 20s
across much of the area by sunrise.

Precautionary/preparedness actions...

A Winter Weather Advisory for black ice means that refreezing of
roads will likely occur... resulting in the development of
widespread black ice. Be prepared for very slippery roadways.
Some roads that appear clear may be covered by a thin layer of
ice.

Stay tuned to NOAA Weather Radio or your favorite source of
weather information for the latest updates. Additional details
can be found at www.Weather.Gov/gsp.